HNM weather

Hana Airport
Hana, Hawaii, United States

Public forecast

Using degrees Fahrenheit for public forecast. Weather courtesy of forecast.io.

METAR (pilot weather report)

Closest report is Kahului Airport, 24.1 nm (44.7 km) WNW. Retrieved 2019/04/21 07:54 UTC (23 minutes ago):

PHOG 210754Z 06011G20KT 10SM CLR 24/19 A3015

TAF (pilot weather forecast)

Closest forecast is Kahului Airport, 24.1 nm (44.7 km) WNW. Retrieved 2019/04/21 06:28 UTC (2 hours ago):

TAF PHOG 210526Z 2106/2206 06014G22KT P6SM VCSH FEW025 BKN050 FM211200 06010KT P6SM VCSH FEW025 BKN050 FM212000 06018G28KT P6SM FEW025 SCT050 FM220400 06012G20KT P6SM FEW025 SCT050 AMD LTD TO VIS AND WIND 2109/2116